Messwerte Nelson Lagoon

Temperatur

Temperatur
°C
1593745200 19.00 19.00 17
1593748800 20.00 20.00 17
1593752400 21.00 21.00 15
1593756000 22.00 22.00 14
1593759600 23.00 23.00 13
1593763200 0.00 0.00 13
1593766800 1.00 1.00 13
1593770400 2.00 2.00 13
1593774000 3.00 3.00 14
1593777600 4.00 4.00 14
1593781200 5.00 5.00 13
1593784800 6.00 6.00 13
1593788400 7.00 7.00 13
1593792000 8.00 8.00
1593795600 9.00 9.00 13
1593799200 10.00 10.00 13
1593802800 11.00 11.00 13
1593806400 12.00 12.00 16
1593810000 13.00 13.00 14
1593813600 14.00 14.00 16
1593817200 15.00 15.00 15
1593820800 16.00 16.00
1593824400 17.00 17.00 16
1593828000 18.00 18.00 14

Aktuellste Messwerte

Wettercharakter
Wetter: Nebel
Temperatur
13 °C
Feuchtigkeit
94 %
Wind
15 km/hWindrichtung: Nordost
Luftdruck
1021 hPa
Messzeit: 3. Juli 2020, 19.00Datenquelle: METAR

Weitere Messstationen in der Nähe

Messstation Temperatur Entfernung
Sand Point 15 °C 87 km
King Cove 11 °C 121 km
Cold Bay 13 °C 132 km
Port Heiden 16 °C 188 km
Pilot Point 13 °C 280 km
Cape Newenham 11 °C 298 km
Egegik 13 °C 333 km

Wind

Windrichtung Böen Mittelwind
° km/h km/h
1593745200 19.00 18.00 - 19.00 240° 20
1593748800 20.00 19.00 - 20.00 210° 20
1593752400 21.00 20.00 - 21.00 160° 20
1593756000 22.00 21.00 - 22.00 170° 20
1593759600 23.00 22.00 - 23.00 190° 20
1593763200 0.00 23.00 - 0.00 180° 20
1593766800 1.00 0.00 - 1.00 180° 15
1593770400 2.00 1.00 - 2.00 200° 10
1593774000 3.00 2.00 - 3.00 200° 10
1593777600 4.00 3.00 - 4.00 230° 15
1593781200 5.00 4.00 - 5.00 260° 20
1593784800 6.00 5.00 - 6.00 240° 20
1593788400 7.00 6.00 - 7.00 250° 15
1593792000 8.00 7.00 - 8.00
1593795600 9.00 8.00 - 9.00 300° 5
1593799200 10.00 9.00 - 10.00 330° 10
1593802800 11.00 10.00 - 11.00 10° 5
1593806400 12.00 11.00 - 12.00 10° 5
1593810000 13.00 12.00 - 13.00 60° 10
1593813600 14.00 13.00 - 14.00 80° 10
1593817200 15.00 14.00 - 15.00 70° 15
1593820800 16.00 15.00 - 16.00
1593824400 17.00 16.00 - 17.00 90° 15
1593828000 18.00 17.00 - 18.00 40° 10

Ihre Wetterstation

Fehlt Ihre Wetterstation auf unserem Portal?

Schreiben Sie an network@meteonews.ch

Klima

Wann ist es am wärmsten? Wann regnet es am wenigsten? Unsere Klimadaten geben Auskunft.